CSL Niagara — VCGJ — position and weather

sailwx.info

Track history (hours):
 
Tides and Currents Weather Stations Pressure Air Temp Water Temp Dewpoint Dewpoint Depression Visibility Wind Speed Wind Dir Waves Ship Positions

CSL Niagara

ex J. W. McGiffin

Last reported at 2016-May-03 08:33 UTC. Time now 2016-May-03 08:43 UTC.
Position N 42°45' W 080°04'.

Length 225 m; draft 8.1 m.

Type: Cargo ship. MMSI: 316029000.

Date/timePositionNaut miles runAvg speedWind from/ knotsBaromVisibWave heightAir tempDewpointWater temp
2016-May-03 08:33N 42°45' W 080°04'9 9.3
2016-May-03 07:33N 42°36' W 080°02'271 6.7
2016-May-01 15:18N 46°06' W 084°01'37 5.2
2016-May-01 08:15N 46°32' W 084°39'27710.6
2016-Apr-30 06:11N 47°02' W 091°21'711.6
2016-Apr-30 05:33N 46°59' W 091°31'1111.3
2016-Apr-30 04:33N 46°53' W 091°45'16 4.0
2016-Apr-30 00:33N 46°42' W 092°01'0 0.0
2016-Apr-29 23:33N 46°42' W 092°01'0 0.0
2016-Apr-29 22:33N 46°42' W 092°01'0 0.0
2016-Apr-29 21:33N 46°42' W 092°01'0 0.0
2016-Apr-29 20:33N 46°42' W 092°01'0 0.0
2016-Apr-29 19:33N 46°42' W 092°01'0 0.0
2016-Apr-29 18:33N 46°42' W 092°01'0 0.0
2016-Apr-29 17:33N 46°42' W 092°01'0 0.0
2016-Apr-29 16:33N 46°42' W 092°01'0 0.0
2016-Apr-29 15:33N 46°42' W 092°01'0 0.0
2016-Apr-29 14:33N 46°42' W 092°01'0 0.0
2016-Apr-29 13:33N 46°42' W 092°01'0 0.0
2016-Apr-29 12:33N 46°42' W 092°01'2 2.5
2016-Apr-29 11:33N 46°44' W 092°04'2 2.5
2016-Apr-29 10:33N 46°46' W 092°06'0 0.0
2016-Apr-29 09:33N 46°46' W 092°06'0 0.0
2016-Apr-29 08:33N 46°46' W 092°06'5 4.6
2016-Apr-29 07:33N 46°48' W 092°00'1212.2
2016-Apr-29 06:33N 46°53' W 091°44'1312.3
2016-Apr-29 05:32N 46°57' W 091°27'26911.7
2016-Apr-28 06:33N 46°44' W 084°54'1211.9
2016-Apr-28 05:33N 46°34' W 084°43'1111.1
2016-Apr-28 04:33N 46°27' W 084°31'305 7.1
2016-Apr-26 09:25N 42°32' W 079°60'1112.3
2016-Apr-26 08:32N 42°37' W 079°47'34 7.9
2016-Apr-26 04:17N 42°60' W 079°13'5 7.1
2016-Apr-26 03:33N 43°05' W 079°13'3 2.8
2016-Apr-26 02:33N 43°07' W 079°12'1 0.5
2016-Apr-26 01:33N 43°08' W 079°12'0 0.2
2016-Apr-26 00:33N 43°08' W 079°12'1 0.9
2016-Apr-25 23:33N 43°09' W 079°12'1 0.7
2016-Apr-25 22:33N 43°10' W 079°12'2 2.1
2016-Apr-25 21:33N 43°12' W 079°12'2 1.6
2016-Apr-25 20:33N 43°13' W 079°13'0 0.5
2016-Apr-25 19:33N 43°14' W 079°13'0 0.0
2016-Apr-25 18:33N 43°14' W 079°13'0 0.0
2016-Apr-25 17:33N 43°14' W 079°13'0 0.0
2016-Apr-25 16:33N 43°14' W 079°13'3 3.3
2016-Apr-25 15:33N 43°17' W 079°14'1211.8
2016-Apr-25 14:33N 43°28' W 079°18'10 1.0
2016-Apr-25 04:33N 43°38' W 079°21'3 3.0
2016-Apr-25 03:33N 43°35' W 079°21'1211.7
2016-Apr-25 02:33N 43°24' W 079°18'1010.4
2016-Apr-25 01:33N 43°14' W 079°13'1 1.4
2016-Apr-25 00:33N 43°13' W 079°13'1 1.4
2016-Apr-24 23:33N 43°12' W 079°12'2 2.2
2016-Apr-24 22:33N 43°09' W 079°12'1 0.8
2016-Apr-24 21:33N 43°09' W 079°12'0 0.5
2016-Apr-24 20:33N 43°08' W 079°12'0 0.3
2016-Apr-24 19:33N 43°08' W 079°12'1 0.5
2016-Apr-24 18:33N 43°07' W 079°12'3 3.0
2016-Apr-24 17:33N 43°04' W 079°13'20 5.7
2016-Apr-24 14:06N 42°46' W 079°23'611.6
2016-Apr-24 13:33N 42°42' W 079°29'1211.7
2016-Apr-24 12:33N 42°35' W 079°42'  
Track history (hours):
 
Tides and Currents Weather Stations Pressure Air Temp Water Temp Dewpoint Dewpoint Depression Visibility Wind Speed Wind Dir Waves Ship Positions

CSL Niagara

ex J. W. McGiffin

Last reported at 2016-May-03 08:33 UTC. Time now 2016-May-03 08:43 UTC.
Position N 42°45' W 080°04'.

Length 225 m; draft 8.1 m.

Type: Cargo ship. MMSI: 316029000.

Date/timePositionNaut miles runAvg speedWind from/ knotsBaromVisibWave heightAir tempDewpointWater temp
2016-May-03 08:33N 42°45' W 080°04'9 9.3
2016-May-03 07:33N 42°36' W 080°02'271 6.7
2016-May-01 15:18N 46°06' W 084°01'37 5.2
2016-May-01 08:15N 46°32' W 084°39'27710.6
2016-Apr-30 06:11N 47°02' W 091°21'711.6
2016-Apr-30 05:33N 46°59' W 091°31'1111.3
2016-Apr-30 04:33N 46°53' W 091°45'16 4.0
2016-Apr-30 00:33N 46°42' W 092°01'0 0.0
2016-Apr-29 23:33N 46°42' W 092°01'0 0.0
2016-Apr-29 22:33N 46°42' W 092°01'0 0.0
2016-Apr-29 21:33N 46°42' W 092°01'0 0.0
2016-Apr-29 20:33N 46°42' W 092°01'0 0.0
2016-Apr-29 19:33N 46°42' W 092°01'0 0.0
2016-Apr-29 18:33N 46°42' W 092°01'0 0.0
2016-Apr-29 17:33N 46°42' W 092°01'0 0.0
2016-Apr-29 16:33N 46°42' W 092°01'0 0.0
2016-Apr-29 15:33N 46°42' W 092°01'0 0.0
2016-Apr-29 14:33N 46°42' W 092°01'0 0.0
2016-Apr-29 13:33N 46°42' W 092°01'0 0.0
2016-Apr-29 12:33N 46°42' W 092°01'2 2.5
2016-Apr-29 11:33N 46°44' W 092°04'2 2.5
2016-Apr-29 10:33N 46°46' W 092°06'0 0.0
2016-Apr-29 09:33N 46°46' W 092°06'0 0.0
2016-Apr-29 08:33N 46°46' W 092°06'5 4.6
2016-Apr-29 07:33N 46°48' W 092°00'1212.2
2016-Apr-29 06:33N 46°53' W 091°44'1312.3
2016-Apr-29 05:32N 46°57' W 091°27'26911.7
2016-Apr-28 06:33N 46°44' W 084°54'1211.9
2016-Apr-28 05:33N 46°34' W 084°43'1111.1
2016-Apr-28 04:33N 46°27' W 084°31'305 7.1
2016-Apr-26 09:25N 42°32' W 079°60'1112.3
2016-Apr-26 08:32N 42°37' W 079°47'34 7.9
2016-Apr-26 04:17N 42°60' W 079°13'5 7.1
2016-Apr-26 03:33N 43°05' W 079°13'3 2.8
2016-Apr-26 02:33N 43°07' W 079°12'1 0.5
2016-Apr-26 01:33N 43°08' W 079°12'0 0.2
2016-Apr-26 00:33N 43°08' W 079°12'1 0.9
2016-Apr-25 23:33N 43°09' W 079°12'1 0.7
2016-Apr-25 22:33N 43°10' W 079°12'2 2.1
2016-Apr-25 21:33N 43°12' W 079°12'2 1.6
2016-Apr-25 20:33N 43°13' W 079°13'0 0.5
2016-Apr-25 19:33N 43°14' W 079°13'0 0.0
2016-Apr-25 18:33N 43°14' W 079°13'0 0.0
2016-Apr-25 17:33N 43°14' W 079°13'0 0.0
2016-Apr-25 16:33N 43°14' W 079°13'3 3.3
2016-Apr-25 15:33N 43°17' W 079°14'1211.8
2016-Apr-25 14:33N 43°28' W 079°18'10 1.0
2016-Apr-25 04:33N 43°38' W 079°21'3 3.0
2016-Apr-25 03:33N 43°35' W 079°21'1211.7
2016-Apr-25 02:33N 43°24' W 079°18'1010.4
2016-Apr-25 01:33N 43°14' W 079°13'1 1.4
2016-Apr-25 00:33N 43°13' W 079°13'1 1.4
2016-Apr-24 23:33N 43°12' W 079°12'2 2.2
2016-Apr-24 22:33N 43°09' W 079°12'1 0.8
2016-Apr-24 21:33N 43°09' W 079°12'0 0.5
2016-Apr-24 20:33N 43°08' W 079°12'0 0.3
2016-Apr-24 19:33N 43°08' W 079°12'1 0.5
2016-Apr-24 18:33N 43°07' W 079°12'3 3.0
2016-Apr-24 17:33N 43°04' W 079°13'20 5.7
2016-Apr-24 14:06N 42°46' W 079°23'611.6
2016-Apr-24 13:33N 42°42' W 079°29'1211.7
2016-Apr-24 12:33N 42°35' W 079°42'  

Dump ship's entire track history